createdAt,value
2022-10-05T00:01:26.155Z,11.14
2022-10-05T00:04:00.986Z,11.12
2022-10-05T00:06:31.156Z,11.07
2022-10-05T00:09:01.262Z,11.06
2022-10-05T00:11:29.468Z,11.06
2022-10-05T00:13:57.307Z,11.02
2022-10-05T00:16:26.759Z,11.06
2022-10-05T00:18:54.999Z,11.06
2022-10-05T00:21:24.688Z,11.04
2022-10-05T00:23:53.541Z,11.05
2022-10-05T00:26:24.227Z,11.03
2022-10-05T00:28:53.448Z,10.95
2022-10-05T00:31:23.162Z,10.94
2022-10-05T00:33:52.464Z,10.88
2022-10-05T00:36:20.451Z,10.84
2022-10-05T00:38:48.641Z,10.80
2022-10-05T00:41:22.561Z,10.77
2022-10-05T00:44:12.703Z,10.76
2022-10-05T00:46:54.599Z,10.74
2022-10-05T00:49:40.374Z,10.70
2022-10-05T00:52:20.098Z,10.71
2022-10-05T00:54:57.982Z,10.69
2022-10-05T00:57:34.950Z,10.65
2022-10-05T01:00:08.706Z,10.59
2022-10-05T01:02:50.614Z,10.58
2022-10-05T01:05:31.009Z,10.60
2022-10-05T01:08:10.743Z,10.57
2022-10-05T01:10:46.268Z,10.53
2022-10-05T01:13:25.065Z,10.52
2022-10-05T01:15:59.207Z,10.52
2022-10-05T01:18:32.837Z,10.51
2022-10-05T01:21:07.258Z,10.52
2022-10-05T01:24:17.135Z,10.51
2022-10-05T01:27:26.089Z,10.44
2022-10-05T01:30:03.090Z,10.38
2022-10-05T01:32:35.907Z,10.40
2022-10-05T01:35:14.151Z,10.40
2022-10-05T01:37:50.146Z,10.39
2022-10-05T01:40:34.728Z,10.36
2022-10-05T01:43:12.561Z,10.33
2022-10-05T01:45:52.897Z,10.31
2022-10-05T01:48:28.126Z,10.28
2022-10-05T01:51:07.334Z,10.29
2022-10-05T01:53:47.657Z,10.26
2022-10-05T01:56:23.830Z,10.17
2022-10-05T01:59:00.687Z,10.12
2022-10-05T02:01:36.885Z,10.09
2022-10-05T02:04:10.133Z,10.06
2022-10-05T02:06:43.155Z,9.99
2022-10-05T02:09:17.676Z,9.97
2022-10-05T02:11:51.106Z,9.93
2022-10-05T02:14:24.043Z,9.92
2022-10-05T02:16:56.803Z,9.91
2022-10-05T02:19:30.717Z,9.87
2022-10-05T02:22:04.737Z,9.88
2022-10-05T02:24:40.336Z,9.85
2022-10-05T02:27:11.685Z,9.82
2022-10-05T02:29:46.712Z,9.77
2022-10-05T02:32:22.227Z,9.75
2022-10-05T02:34:50.270Z,9.71
2022-10-05T02:37:32.983Z,9.71
2022-10-05T02:40:25.635Z,9.70
2022-10-05T02:43:05.216Z,9.66
2022-10-05T02:45:42.535Z,9.62
2022-10-05T02:48:21.749Z,9.64
2022-10-05T02:50:54.706Z,9.62
2022-10-05T02:53:31.820Z,9.60
2022-10-05T02:56:12.080Z,9.54
2022-10-05T02:58:46.681Z,9.55
2022-10-05T03:01:25.238Z,9.60
2022-10-05T03:04:02.519Z,9.64
2022-10-05T03:06:36.048Z,9.63
2022-10-05T03:09:08.181Z,9.61
2022-10-05T03:11:45.689Z,9.58
2022-10-05T03:14:19.859Z,9.55
2022-10-05T03:16:56.533Z,9.52
2022-10-05T03:19:41.939Z,9.48
2022-10-05T03:22:19.439Z,9.50
2022-10-05T03:25:01.641Z,9.51
2022-10-05T03:27:38.590Z,9.48
2022-10-05T03:30:13.952Z,9.42
2022-10-05T03:32:54.274Z,9.43
2022-10-05T03:35:30.790Z,9.46
2022-10-05T03:38:10.548Z,9.46
2022-10-05T03:40:44.547Z,9.50
2022-10-05T03:43:47.431Z,9.41
2022-10-05T03:46:25.917Z,9.37
2022-10-05T03:49:02.028Z,9.41
2022-10-05T03:51:35.872Z,9.42
2022-10-05T03:54:12.870Z,9.42
2022-10-05T03:56:46.606Z,9.45
2022-10-05T03:59:19.774Z,9.49
2022-10-05T04:01:52.881Z,9.50
2022-10-05T04:04:27.499Z,9.49
2022-10-05T04:06:59.056Z,9.44
2022-10-05T04:09:32.789Z,9.47
2022-10-05T04:12:16.534Z,9.48
2022-10-05T04:14:48.235Z,9.46
2022-10-05T04:17:23.699Z,9.43
2022-10-05T04:19:58.481Z,9.48
2022-10-05T04:22:34.440Z,9.51
2022-10-05T04:25:16.059Z,9.56
2022-10-05T04:27:48.393Z,9.52
2022-10-05T04:30:22.150Z,9.50
2022-10-05T04:32:54.793Z,9.49
2022-10-05T04:35:46.571Z,9.46
2022-10-05T04:38:35.782Z,9.38
2022-10-05T04:41:17.334Z,9.39
2022-10-05T04:43:56.954Z,9.33
2022-10-05T04:46:39.845Z,9.24
2022-10-05T04:49:23.024Z,9.18
2022-10-05T04:51:58.162Z,9.12
2022-10-05T04:54:42.987Z,9.14
2022-10-05T04:57:16.146Z,9.15
2022-10-05T05:00:04.734Z,9.08
2022-10-05T05:02:49.700Z,9.04
2022-10-05T05:05:28.395Z,8.98
2022-10-05T05:08:06.867Z,8.95
2022-10-05T05:11:05.567Z,8.92
2022-10-05T05:13:56.189Z,8.92
2022-10-05T05:16:33.865Z,8.90
2022-10-05T05:19:15.860Z,8.88
2022-10-05T05:21:53.064Z,8.88
2022-10-05T05:24:30.056Z,8.88
2022-10-05T05:27:12.130Z,8.85
2022-10-05T05:29:53.059Z,8.86
2022-10-05T05:32:33.437Z,8.87
2022-10-05T05:35:16.366Z,8.88
2022-10-05T05:37:54.939Z,8.88
2022-10-05T05:40:28.775Z,8.91
2022-10-05T05:43:01.401Z,8.90
2022-10-05T05:45:41.582Z,8.92
2022-10-05T05:48:22.300Z,8.90
2022-10-05T05:50:58.251Z,8.90
2022-10-05T05:53:34.480Z,8.92
2022-10-05T05:56:09.971Z,8.89
2022-10-05T05:58:46.308Z,8.88
2022-10-05T06:01:32.830Z,8.95
2022-10-05T06:04:06.185Z,9.03
2022-10-05T06:06:39.897Z,9.11
2022-10-05T06:09:17.694Z,9.14
2022-10-05T06:11:57.242Z,9.19
2022-10-05T06:14:33.471Z,9.26
2022-10-05T06:17:04.993Z,9.33
2022-10-05T06:19:35.776Z,9.36
2022-10-05T06:22:14.476Z,9.47
2022-10-05T06:24:58.119Z,9.54
2022-10-05T06:27:27.976Z,9.59
2022-10-05T06:30:08.205Z,9.65
2022-10-05T06:32:53.619Z,9.72
2022-10-05T06:35:35.269Z,9.80
2022-10-05T06:38:22.081Z,9.90
2022-10-05T06:41:01.154Z,9.98
2022-10-05T06:43:40.402Z,10.05
2022-10-05T06:46:23.911Z,10.14
2022-10-05T06:49:18.988Z,10.30
2022-10-05T06:51:53.754Z,10.33
2022-10-05T06:54:42.553Z,10.48
2022-10-05T06:57:19.474Z,10.60
2022-10-05T06:59:56.599Z,10.75
2022-10-05T07:02:36.988Z,10.83
2022-10-05T07:05:45.719Z,10.88
2022-10-05T07:08:19.290Z,10.97
2022-10-05T07:10:59.798Z,11.04
2022-10-05T07:13:48.491Z,11.13
2022-10-05T07:16:24.200Z,11.22
2022-10-05T07:19:10.097Z,11.24
2022-10-05T07:21:46.443Z,11.25
2022-10-05T07:24:29.190Z,11.25
2022-10-05T07:27:07.742Z,11.27
2022-10-05T07:29:46.748Z,11.31
2022-10-05T07:32:31.412Z,11.35
2022-10-05T07:35:09.228Z,11.52
2022-10-05T07:37:56.980Z,11.66
2022-10-05T07:40:32.638Z,11.77
2022-10-05T07:43:14.796Z,11.86
2022-10-05T07:45:48.791Z,11.82
2022-10-05T07:48:22.114Z,11.85
2022-10-05T07:51:00.547Z,12.04
2022-10-05T07:53:34.114Z,12.01
2022-10-05T07:56:10.299Z,11.98
2022-10-05T07:58:44.332Z,12.16
2022-10-05T08:01:19.242Z,12.30
2022-10-05T08:03:54.763Z,12.30
2022-10-05T08:06:48.392Z,12.29
2022-10-05T08:09:38.683Z,12.21
2022-10-05T08:12:20.535Z,12.09
2022-10-05T08:14:53.921Z,12.18
2022-10-05T08:17:31.829Z,12.29
2022-10-05T08:20:12.163Z,12.43
2022-10-05T08:22:48.231Z,12.47
2022-10-05T08:25:23.517Z,12.56
2022-10-05T08:27:55.613Z,12.59
2022-10-05T08:30:24.211Z,12.66
2022-10-05T08:32:56.212Z,12.77
2022-10-05T08:35:33.964Z,12.89
2022-10-05T08:38:09.461Z,13.09
2022-10-05T08:41:14.695Z,13.16
2022-10-05T08:44:38.309Z,13.28
2022-10-05T08:47:22.786Z,13.43
2022-10-05T08:50:06.299Z,13.60
2022-10-05T08:52:46.017Z,13.63
2022-10-05T08:55:30.196Z,13.68
2022-10-05T08:58:14.952Z,13.77
2022-10-05T09:00:54.754Z,13.88
2022-10-05T09:03:44.523Z,13.95
2022-10-05T09:06:27.667Z,14.03
2022-10-05T09:09:11.044Z,14.13
2022-10-05T09:11:52.152Z,14.25
2022-10-05T09:14:33.457Z,14.33
2022-10-05T09:17:26.246Z,14.42
2022-10-05T09:20:23.699Z,14.53
2022-10-05T09:23:14.583Z,14.60
2022-10-05T09:25:55.146Z,14.69
2022-10-05T09:28:33.538Z,14.73
2022-10-05T09:31:19.282Z,14.86
2022-10-05T09:34:22.983Z,14.94
2022-10-05T09:37:23.055Z,15.09
2022-10-05T09:40:18.485Z,15.17
2022-10-05T09:43:19.496Z,15.28
2022-10-05T09:46:05.819Z,15.45
2022-10-05T09:49:07.598Z,15.46
2022-10-05T09:52:00.882Z,15.55
2022-10-05T09:55:05.499Z,15.61
2022-10-05T09:58:12.562Z,15.75
2022-10-05T10:01:09.061Z,15.85
2022-10-05T10:04:19.098Z,15.92
2022-10-05T10:07:16.543Z,16.02
2022-10-05T10:10:00.940Z,16.08
2022-10-05T10:12:37.389Z,16.16
2022-10-05T10:15:28.232Z,16.24
2022-10-05T10:18:14.040Z,16.39
2022-10-05T10:21:00.544Z,16.65
2022-10-05T10:24:02.032Z,16.80
2022-10-05T10:27:05.407Z,16.92
2022-10-05T10:29:55.242Z,17.17
2022-10-05T10:33:01.874Z,17.43
2022-10-05T10:35:35.667Z,17.77
2022-10-05T10:38:30.930Z,17.83
2022-10-05T10:41:30.049Z,17.87
2022-10-05T10:44:29.932Z,17.99
2022-10-05T10:47:25.547Z,18.16
2022-10-05T10:50:16.693Z,18.38
2022-10-05T10:53:05.622Z,18.70
2022-10-05T10:55:43.849Z,18.90
2022-10-05T10:58:50.769Z,19.00
2022-10-05T11:01:31.131Z,19.02
2022-10-05T11:04:31.463Z,19.12
2022-10-05T11:07:37.270Z,19.08
2022-10-05T11:10:39.829Z,19.20
2022-10-05T11:13:43.572Z,19.27
2022-10-05T11:16:33.193Z,19.43
2022-10-05T11:20:02.526Z,19.46
2022-10-05T11:22:42.488Z,19.56
2022-10-05T11:25:42.745Z,19.44
2022-10-05T11:28:36.137Z,19.55
2022-10-05T11:31:31.032Z,19.61
2022-10-05T11:34:37.324Z,19.69
2022-10-05T11:38:01.987Z,19.71
2022-10-05T11:41:12.407Z,19.86
2022-10-05T11:44:15.806Z,19.72
2022-10-05T11:46:54.347Z,19.76
2022-10-05T11:49:41.416Z,19.85
2022-10-05T11:52:18.177Z,20.06
2022-10-05T11:55:12.174Z,20.21
2022-10-05T11:57:49.028Z,20.33
2022-10-05T12:00:21.790Z,20.57
2022-10-05T12:03:14.087Z,20.65
2022-10-05T12:05:52.474Z,20.75
2022-10-05T12:08:30.071Z,20.59
2022-10-05T12:11:06.686Z,20.48
2022-10-05T12:13:41.655Z,20.37
2022-10-05T12:16:19.342Z,20.35
2022-10-05T12:18:56.217Z,20.51
2022-10-05T12:21:34.759Z,20.69
2022-10-05T12:24:09.696Z,20.92
2022-10-05T12:26:42.474Z,21.07
2022-10-05T12:29:16.872Z,21.03
2022-10-05T12:31:53.607Z,21.04
2022-10-05T12:34:30.623Z,20.85
2022-10-05T12:37:05.406Z,20.74
2022-10-05T12:39:42.789Z,20.68
2022-10-05T12:42:21.617Z,20.64
2022-10-05T12:45:08.317Z,20.70
2022-10-05T12:47:53.889Z,20.73
2022-10-05T12:50:28.728Z,20.96
2022-10-05T12:53:10.326Z,21.21
2022-10-05T12:55:47.680Z,21.34
2022-10-05T12:58:29.553Z,21.44
2022-10-05T13:01:05.011Z,21.58
2022-10-05T13:03:38.775Z,21.67
2022-10-05T13:06:19.815Z,21.77
2022-10-05T13:08:54.694Z,21.94
2022-10-05T13:11:29.655Z,21.99
2022-10-05T13:14:10.416Z,22.13
2022-10-05T13:16:51.259Z,22.21
2022-10-05T13:19:39.334Z,22.17
2022-10-05T13:22:25.724Z,22.31
2022-10-05T13:25:02.619Z,22.41
2022-10-05T13:27:32.733Z,22.39
2022-10-05T13:30:04.567Z,22.35
2022-10-05T13:32:36.638Z,22.51
2022-10-05T13:35:22.620Z,22.57
2022-10-05T13:38:04.838Z,22.56
2022-10-05T13:40:39.214Z,22.67
2022-10-05T13:43:17.483Z,22.82
2022-10-05T13:45:52.781Z,22.92
2022-10-05T13:48:47.241Z,23.11
2022-10-05T13:51:20.252Z,23.14
2022-10-05T13:54:01.933Z,23.22
2022-10-05T13:56:33.500Z,23.23
2022-10-05T13:59:16.954Z,23.40
2022-10-05T14:01:52.129Z,23.47
2022-10-05T14:04:24.479Z,23.44
2022-10-05T14:06:53.144Z,23.54
2022-10-05T14:09:35.270Z,23.55
2022-10-05T14:12:15.579Z,23.32
2022-10-05T14:14:47.534Z,23.28
2022-10-05T14:17:17.833Z,23.35
2022-10-05T14:19:51.063Z,23.36
2022-10-05T14:22:23.168Z,23.43
2022-10-05T14:24:56.761Z,23.43
2022-10-05T14:27:27.241Z,23.36
2022-10-05T14:30:00.659Z,23.43
2022-10-05T14:32:32.382Z,23.31
2022-10-05T14:35:13.802Z,23.28
2022-10-05T14:37:50.331Z,22.97
2022-10-05T14:40:27.552Z,23.06
2022-10-05T14:42:56.459Z,23.07
2022-10-05T14:45:26.332Z,23.06
2022-10-05T14:48:09.769Z,22.88
2022-10-05T14:50:56.518Z,22.80
2022-10-05T14:53:26.160Z,22.74
2022-10-05T14:56:17.440Z,22.65
2022-10-05T14:59:00.643Z,22.46
2022-10-05T15:01:31.405Z,22.54
2022-10-05T15:04:17.780Z,22.44
2022-10-05T15:06:55.464Z,22.43
2022-10-05T15:10:01.762Z,22.42
2022-10-05T15:12:36.474Z,22.29
2022-10-05T15:15:12.309Z,22.26
2022-10-05T15:17:47.582Z,22.26
2022-10-05T15:20:25.412Z,22.25
2022-10-05T15:23:02.644Z,22.15
2022-10-05T15:25:38.112Z,22.18
2022-10-05T15:28:18.778Z,22.20
2022-10-05T15:30:57.600Z,22.15
2022-10-05T15:33:32.537Z,22.11
2022-10-05T15:36:08.094Z,21.99
2022-10-05T15:38:49.950Z,21.95
2022-10-05T15:41:24.769Z,21.96
2022-10-05T15:44:15.009Z,21.83
2022-10-05T15:46:56.424Z,21.72
2022-10-05T15:49:34.358Z,21.59
2022-10-05T15:52:17.625Z,21.51
2022-10-05T15:55:10.280Z,21.42
2022-10-05T15:57:46.447Z,21.33
2022-10-05T16:00:18.648Z,21.27
2022-10-05T16:02:52.408Z,21.23
2022-10-05T16:05:53.064Z,21.22
2022-10-05T16:08:51.721Z,21.21
2022-10-05T16:11:31.045Z,21.13
2022-10-05T16:14:12.610Z,21.11
2022-10-05T16:16:51.457Z,21.11
2022-10-05T16:19:26.850Z,21.08
2022-10-05T16:22:04.055Z,21.02
2022-10-05T16:24:51.568Z,20.99
2022-10-05T16:27:28.788Z,20.94
2022-10-05T16:30:03.004Z,20.81
2022-10-05T16:32:38.199Z,20.73
2022-10-05T16:35:17.998Z,20.69
2022-10-05T16:37:54.218Z,20.60
2022-10-05T16:40:30.883Z,20.52
2022-10-05T16:43:09.648Z,20.40
2022-10-05T16:45:51.741Z,20.32
2022-10-05T16:48:26.727Z,20.24
2022-10-05T16:51:09.366Z,20.12
2022-10-05T16:53:41.490Z,20.03
2022-10-05T16:56:14.522Z,19.96
2022-10-05T16:58:58.423Z,19.87
2022-10-05T17:01:43.588Z,19.78
2022-10-05T17:04:33.125Z,19.80
2022-10-05T17:07:32.788Z,19.72
2022-10-05T17:10:24.922Z,19.65
2022-10-05T17:13:04.296Z,19.59
2022-10-05T17:15:37.627Z,19.51
2022-10-05T17:18:29.930Z,19.43
2022-10-05T17:21:07.777Z,19.38
2022-10-05T17:23:50.123Z,19.34
2022-10-05T17:26:34.570Z,19.29
2022-10-05T17:29:16.369Z,19.22
2022-10-05T17:32:10.883Z,19.13
2022-10-05T17:34:40.861Z,19.08
2022-10-05T17:37:36.479Z,19.02
2022-10-05T17:40:32.435Z,18.95
2022-10-05T17:43:01.557Z,18.87
2022-10-05T17:45:53.903Z,18.85
2022-10-05T17:48:44.004Z,18.80
2022-10-05T17:52:02.374Z,18.75
2022-10-05T17:55:05.840Z,18.73
2022-10-05T17:57:36.740Z,18.68
2022-10-05T18:00:05.872Z,18.67
2022-10-05T18:02:43.739Z,18.64
2022-10-05T18:05:26.034Z,18.61
2022-10-05T18:08:30.239Z,18.52
2022-10-05T18:11:37.699Z,18.47
2022-10-05T18:14:19.369Z,18.41
2022-10-05T18:17:01.846Z,18.34
2022-10-05T18:19:33.282Z,18.23
2022-10-05T18:22:04.353Z,18.14
2022-10-05T18:25:03.478Z,18.05
2022-10-05T18:28:12.276Z,17.92
2022-10-05T18:31:04.060Z,17.81
2022-10-05T18:33:54.438Z,17.74
2022-10-05T18:36:44.343Z,17.64
2022-10-05T18:39:27.894Z,17.53
2022-10-05T18:42:07.032Z,17.46
2022-10-05T18:44:41.397Z,17.40
2022-10-05T18:47:17.451Z,17.34
2022-10-05T18:50:17.016Z,17.28
2022-10-05T18:52:58.726Z,17.20
2022-10-05T18:55:36.306Z,17.11
2022-10-05T18:58:15.719Z,17.05
2022-10-05T19:01:19.451Z,17.01
2022-10-05T19:04:00.730Z,16.98
2022-10-05T19:06:31.990Z,16.97
2022-10-05T19:09:10.931Z,16.97
2022-10-05T19:11:51.825Z,16.99
2022-10-05T19:14:29.751Z,16.99
2022-10-05T19:17:16.455Z,16.99
2022-10-05T19:20:03.506Z,17.01
2022-10-05T19:22:48.046Z,17.02
2022-10-05T19:25:27.503Z,17.02
2022-10-05T19:28:08.345Z,17.03
2022-10-05T19:30:49.509Z,17.06
2022-10-05T19:33:45.002Z,17.17
2022-10-05T19:36:31.859Z,17.16
2022-10-05T19:39:08.005Z,17.15
2022-10-05T19:41:48.005Z,17.14
2022-10-05T19:44:27.037Z,17.12
2022-10-05T19:47:00.585Z,17.10
2022-10-05T19:49:50.625Z,17.09
2022-10-05T19:52:23.594Z,17.07
2022-10-05T19:55:04.572Z,17.05
2022-10-05T19:57:33.064Z,17.07
2022-10-05T20:00:01.280Z,17.08
2022-10-05T20:02:29.243Z,17.00
2022-10-05T20:05:07.892Z,16.99
2022-10-05T20:07:36.180Z,16.99
2022-10-05T20:10:26.617Z,17.02
2022-10-05T20:12:57.528Z,17.05
2022-10-05T20:15:45.539Z,17.02
2022-10-05T20:18:50.352Z,17.00
2022-10-05T20:21:44.084Z,16.98
2022-10-05T20:24:13.981Z,16.99
2022-10-05T20:27:01.984Z,17.03
2022-10-05T20:29:31.602Z,17.03
2022-10-05T20:31:59.732Z,17.07
2022-10-05T20:34:27.678Z,17.06
2022-10-05T20:36:56.819Z,17.07
2022-10-05T20:39:24.855Z,17.08
2022-10-05T20:41:52.564Z,17.11
2022-10-05T20:44:20.460Z,17.12
2022-10-05T20:46:48.281Z,17.09
2022-10-05T20:49:16.350Z,17.08
2022-10-05T20:51:44.145Z,17.04
2022-10-05T20:54:18.883Z,17.04
2022-10-05T20:56:47.037Z,17.04
2022-10-05T20:59:15.275Z,17.04
2022-10-05T21:01:44.112Z,17.01
2022-10-05T21:04:12.008Z,16.99
2022-10-05T21:06:39.996Z,16.93
2022-10-05T21:09:11.242Z,16.88
2022-10-05T21:11:40.687Z,16.85
2022-10-05T21:14:08.900Z,16.82
2022-10-05T21:16:38.175Z,16.79
2022-10-05T21:19:08.603Z,16.76
2022-10-05T21:21:40.073Z,16.75
2022-10-05T21:24:13.610Z,16.73
2022-10-05T21:26:44.136Z,16.70
2022-10-05T21:29:13.229Z,16.66
2022-10-05T21:31:41.608Z,16.65
2022-10-05T21:34:09.958Z,16.62
2022-10-05T21:36:37.808Z,16.61
2022-10-05T21:39:05.765Z,16.59
2022-10-05T21:41:36.525Z,16.55
2022-10-05T21:44:06.259Z,16.55
2022-10-05T21:46:36.941Z,16.54
2022-10-05T21:49:06.721Z,16.51
2022-10-05T21:51:36.225Z,16.48
2022-10-05T21:54:09.851Z,16.43
2022-10-05T21:56:40.977Z,16.42
2022-10-05T21:59:12.617Z,16.39
2022-10-05T22:01:40.498Z,16.38
2022-10-05T22:04:09.167Z,16.35
2022-10-05T22:06:37.874Z,16.29
2022-10-05T22:09:06.157Z,16.23
2022-10-05T22:11:34.307Z,16.18
2022-10-05T22:14:03.041Z,16.12
2022-10-05T22:16:34.566Z,16.06
2022-10-05T22:19:05.416Z,15.99
2022-10-05T22:21:37.723Z,15.92
2022-10-05T22:24:06.169Z,15.90
2022-10-05T22:26:34.763Z,15.89
2022-10-05T22:29:03.618Z,15.90
2022-10-05T22:31:35.263Z,15.89
2022-10-05T22:34:03.171Z,15.90
2022-10-05T22:36:31.197Z,15.92
2022-10-05T22:38:59.096Z,15.92
2022-10-05T22:41:26.912Z,15.92
2022-10-05T22:43:54.855Z,15.93
2022-10-05T22:46:22.759Z,15.92
2022-10-05T22:48:52.041Z,15.91
2022-10-05T22:51:19.961Z,15.90
2022-10-05T22:53:47.693Z,15.89
2022-10-05T22:56:16.438Z,15.87
2022-10-05T22:58:45.345Z,15.85
2022-10-05T23:01:15.883Z,15.83
2022-10-05T23:03:44.338Z,15.82
2022-10-05T23:06:16.237Z,15.79
2022-10-05T23:08:44.438Z,15.75
2022-10-05T23:11:14.087Z,15.71
2022-10-05T23:13:42.153Z,15.65
2022-10-05T23:16:11.968Z,15.61
2022-10-05T23:18:40.516Z,15.55
2022-10-05T23:21:09.783Z,15.51
2022-10-05T23:23:40.844Z,15.44
2022-10-05T23:26:10.965Z,15.39
2022-10-05T23:28:43.039Z,15.32
2022-10-05T23:31:11.126Z,15.26
2022-10-05T23:33:41.938Z,15.22
2022-10-05T23:36:16.093Z,15.15
2022-10-05T23:38:45.945Z,15.11
2022-10-05T23:41:14.695Z,15.08
2022-10-05T23:43:43.065Z,15.04
2022-10-05T23:46:11.455Z,14.97
2022-10-05T23:48:39.645Z,14.93
2022-10-05T23:51:08.953Z,14.90
2022-10-05T23:53:36.894Z,14.86
2022-10-05T23:56:08.911Z,14.82
2022-10-05T23:58:36.880Z,14.80
